createdAt,value
2023-04-14T00:02:21.502Z,5.17
2023-04-14T00:04:55.102Z,7.93
2023-04-14T00:07:28.370Z,6.43
2023-04-14T00:10:01.312Z,7.03
2023-04-14T00:12:28.140Z,5.30
2023-04-14T00:15:01.386Z,5.77
2023-04-14T00:17:28.178Z,5.80
2023-04-14T00:20:01.292Z,6.27
2023-04-14T00:22:28.090Z,4.53
2023-04-14T00:25:01.257Z,5.70
2023-04-14T00:27:28.647Z,5.03
2023-04-14T00:29:55.341Z,8.13
2023-04-14T00:32:28.401Z,7.93
2023-04-14T00:34:57.118Z,7.10
2023-04-14T00:37:31.484Z,5.37
2023-04-14T00:40:11.386Z,4.90
2023-04-14T00:42:54.300Z,6.20
2023-04-14T00:45:21.400Z,7.20
2023-04-14T00:47:57.441Z,6.13
2023-04-14T00:50:24.701Z,8.17
2023-04-14T00:52:59.385Z,7.40
2023-04-14T00:55:32.531Z,5.27
2023-04-14T00:58:08.298Z,5.20
2023-04-14T01:00:38.350Z,5.40
2023-04-14T01:03:13.603Z,7.67
2023-04-14T01:05:47.373Z,5.00
2023-04-14T01:08:21.303Z,6.10
2023-04-14T01:11:02.631Z,7.10
2023-04-14T01:13:52.271Z,5.63
2023-04-14T01:16:32.159Z,5.00
2023-04-14T01:19:11.374Z,6.27
2023-04-14T01:21:43.960Z,5.17
2023-04-14T01:24:23.338Z,5.47
2023-04-14T01:27:03.334Z,4.90
2023-04-14T01:29:50.346Z,7.17
2023-04-14T01:32:22.306Z,4.27
2023-04-14T01:35:03.365Z,6.87
2023-04-14T01:37:41.380Z,4.97
2023-04-14T01:40:20.678Z,4.03
2023-04-14T01:43:09.369Z,4.43
2023-04-14T01:45:50.513Z,2.97
2023-04-14T01:48:24.288Z,4.27
2023-04-14T01:50:58.346Z,3.80
2023-04-14T01:53:27.649Z,6.33
2023-04-14T01:56:02.268Z,3.73
2023-04-14T01:58:37.280Z,5.03
2023-04-14T02:01:12.591Z,3.77
2023-04-14T02:03:40.346Z,5.60
2023-04-14T02:06:15.368Z,5.93
2023-04-14T02:08:50.339Z,5.20
2023-04-14T02:11:26.380Z,4.90
2023-04-14T02:14:01.337Z,5.57
2023-04-14T02:16:30.040Z,4.17
2023-04-14T02:19:05.344Z,4.07
2023-04-14T02:21:41.373Z,5.43
2023-04-14T02:24:14.358Z,4.87
2023-04-14T02:26:59.111Z,3.43
2023-04-14T02:29:34.352Z,4.53
2023-04-14T02:32:11.391Z,5.07
2023-04-14T02:35:10.396Z,3.93
2023-04-14T02:37:41.132Z,3.67
2023-04-14T02:40:28.348Z,2.73
2023-04-14T02:43:05.889Z,4.10
2023-04-14T02:45:48.432Z,5.73
2023-04-14T02:48:18.107Z,4.83
2023-04-14T02:50:54.380Z,5.10
2023-04-14T02:53:30.299Z,3.80
2023-04-14T02:56:05.346Z,3.30
2023-04-14T02:58:33.094Z,4.40
2023-04-14T03:01:07.308Z,6.73
2023-04-14T03:03:37.755Z,5.00
2023-04-14T03:06:15.357Z,4.20
2023-04-14T03:08:44.444Z,3.77
2023-04-14T03:11:21.316Z,4.33
2023-04-14T03:13:59.309Z,5.07
2023-04-14T03:16:34.451Z,4.17
2023-04-14T03:19:10.445Z,5.03
2023-04-14T03:21:37.976Z,4.63
2023-04-14T03:24:13.398Z,4.83
2023-04-14T03:26:43.253Z,3.53
2023-04-14T03:29:17.364Z,6.73
2023-04-14T03:31:45.034Z,6.13
2023-04-14T03:34:22.352Z,3.97
2023-04-14T03:36:52.864Z,4.57
2023-04-14T03:39:29.363Z,6.53
2023-04-14T03:42:10.431Z,6.17
2023-04-14T03:44:40.099Z,4.17
2023-04-14T03:47:15.405Z,4.83
2023-04-14T03:49:53.320Z,6.90
2023-04-14T03:52:23.129Z,3.80
2023-04-14T03:55:00.355Z,5.37
2023-04-14T03:57:36.303Z,7.67
2023-04-14T04:00:12.400Z,6.30
2023-04-14T04:02:40.477Z,6.70
2023-04-14T04:05:09.716Z,5.10
2023-04-14T04:07:45.406Z,3.70
2023-04-14T04:10:20.409Z,4.33
2023-04-14T04:12:49.240Z,5.20
2023-04-14T04:15:16.746Z,5.10
2023-04-14T04:17:50.456Z,4.90
2023-04-14T04:20:25.475Z,7.43
2023-04-14T04:23:02.411Z,4.93
2023-04-14T04:25:32.597Z,3.37
2023-04-14T04:28:01.351Z,4.07
2023-04-14T04:30:36.387Z,4.93
2023-04-14T04:33:10.435Z,4.00
2023-04-14T04:35:44.401Z,5.60
2023-04-14T04:38:27.636Z,5.77
2023-04-14T04:41:07.342Z,8.40
2023-04-14T04:43:40.445Z,5.57
2023-04-14T04:46:51.448Z,5.77
2023-04-14T04:49:24.442Z,5.20
2023-04-14T04:51:57.425Z,7.77
2023-04-14T04:54:24.167Z,5.97
2023-04-14T04:56:57.461Z,4.53
2023-04-14T04:59:24.728Z,7.13
2023-04-14T05:01:58.452Z,4.67
2023-04-14T05:04:25.497Z,5.20
2023-04-14T05:06:58.390Z,5.43
2023-04-14T05:09:25.092Z,6.03
2023-04-14T05:11:58.424Z,4.50
2023-04-14T05:14:31.425Z,6.33
2023-04-14T05:17:04.364Z,6.07
2023-04-14T05:19:31.034Z,7.40
2023-04-14T05:22:04.368Z,8.03
2023-04-14T05:24:37.425Z,6.17
2023-04-14T05:27:13.203Z,4.83
2023-04-14T05:29:47.443Z,6.00
2023-04-14T05:32:14.888Z,5.90
2023-04-14T05:34:48.367Z,6.67
2023-04-14T05:37:15.035Z,8.67
2023-04-14T05:39:55.418Z,8.73
2023-04-14T05:42:22.138Z,7.00
2023-04-14T05:44:55.473Z,7.37
2023-04-14T05:47:22.198Z,8.73
2023-04-14T05:49:55.401Z,6.90
2023-04-14T05:52:29.446Z,7.97
2023-04-14T05:55:02.499Z,8.53
2023-04-14T05:57:29.257Z,7.80
2023-04-14T06:00:02.450Z,7.83
2023-04-14T06:02:35.582Z,9.93
2023-04-14T06:05:03.001Z,9.17
2023-04-14T06:07:36.420Z,9.03
2023-04-14T06:10:03.720Z,10.93
2023-04-14T06:12:37.457Z,12.03
2023-04-14T06:15:05.891Z,12.77
2023-04-14T06:17:40.507Z,10.80
2023-04-14T06:20:08.215Z,13.53
2023-04-14T06:22:41.465Z,11.90
2023-04-14T06:25:08.581Z,12.60
2023-04-14T06:27:35.949Z,10.80
2023-04-14T06:30:09.447Z,11.23
2023-04-14T06:32:36.355Z,13.67
2023-04-14T06:35:19.034Z,9.37
2023-04-14T06:37:52.674Z,10.70
2023-04-14T06:40:32.555Z,9.83
2023-04-14T06:42:59.287Z,10.93
2023-04-14T06:45:32.623Z,10.43
2023-04-14T06:48:05.669Z,11.67
2023-04-14T06:50:39.434Z,9.77
2023-04-14T06:53:07.291Z,15.47
2023-04-14T06:55:42.413Z,12.70
2023-04-14T06:58:09.274Z,10.87
2023-04-14T07:00:36.356Z,9.17
2023-04-14T07:03:09.556Z,11.40
2023-04-14T07:05:43.473Z,9.73
2023-04-14T07:08:10.326Z,13.23
2023-04-14T07:10:43.583Z,10.93
2023-04-14T07:13:16.969Z,12.30
2023-04-14T07:15:48.019Z,9.53
2023-04-14T07:18:21.540Z,8.23
2023-04-14T07:20:51.487Z,9.63
2023-04-14T07:23:24.471Z,10.47
2023-04-14T07:25:52.854Z,12.00
2023-04-14T07:28:20.757Z,7.80
2023-04-14T07:30:54.489Z,10.30
2023-04-14T07:33:29.428Z,10.38
2023-04-14T07:36:04.147Z,11.15
2023-04-14T07:38:40.461Z,12.65
2023-04-14T07:41:14.460Z,10.85
2023-04-14T07:43:47.497Z,14.98
2023-04-14T07:46:14.275Z,16.17
2023-04-14T07:48:47.461Z,12.10
2023-04-14T07:51:20.408Z,9.57
2023-04-14T07:53:53.443Z,9.68
2023-04-14T07:56:20.151Z,9.85
2023-04-14T07:58:53.430Z,8.07
2023-04-14T08:01:26.483Z,9.35
2023-04-14T08:03:53.294Z,7.43
2023-04-14T08:06:27.444Z,7.63
2023-04-14T08:08:54.225Z,9.05
2023-04-14T08:11:27.429Z,4.63
2023-04-14T08:13:54.177Z,6.95
2023-04-14T08:16:27.498Z,5.85
2023-04-14T08:19:00.756Z,7.60
2023-04-14T08:21:28.053Z,8.13
2023-04-14T08:24:01.589Z,7.30
2023-04-14T08:26:34.769Z,6.43
2023-04-14T08:29:08.520Z,5.72
2023-04-14T08:31:35.434Z,7.30
2023-04-14T08:34:08.439Z,5.65
2023-04-14T08:36:35.323Z,7.47
2023-04-14T08:39:08.511Z,8.18
2023-04-14T08:41:42.426Z,5.10
2023-04-14T08:44:16.451Z,6.22
2023-04-14T08:46:43.823Z,5.38
2023-04-14T08:49:22.446Z,5.68
2023-04-14T08:51:50.503Z,4.70
2023-04-14T08:54:25.540Z,6.20
2023-04-14T08:56:53.970Z,4.57
2023-04-14T08:59:28.432Z,5.38
2023-04-14T09:01:56.144Z,5.90
2023-04-14T09:04:30.764Z,5.90
2023-04-14T09:06:57.615Z,7.32
2023-04-14T09:09:31.498Z,8.50
2023-04-14T09:11:58.800Z,6.70
2023-04-14T09:14:32.594Z,6.05
2023-04-14T09:17:05.603Z,8.15
2023-04-14T09:20:38.138Z,7.57
2023-04-14T09:22:34.564Z,5.30
2023-04-14T09:25:01.452Z,7.32
2023-04-14T09:27:35.516Z,4.80
2023-04-14T09:30:02.749Z,4.57
2023-04-14T09:32:36.511Z,2.78
2023-04-14T09:35:03.611Z,6.00
2023-04-14T09:37:50.522Z,3.13
2023-04-14T09:40:37.540Z,3.72
2023-04-14T09:43:19.502Z,5.10
2023-04-14T09:45:46.313Z,4.78
2023-04-14T09:48:22.499Z,4.25
2023-04-14T09:51:01.751Z,6.80
2023-04-14T09:53:42.555Z,4.35
2023-04-14T09:56:18.523Z,5.53
2023-04-14T09:58:52.522Z,4.28
2023-04-14T10:01:20.462Z,5.20
2023-04-14T10:03:55.507Z,5.13
2023-04-14T10:06:23.969Z,5.38
2023-04-14T10:08:59.663Z,5.75
2023-04-14T10:11:36.474Z,4.05
2023-04-14T10:14:05.471Z,3.28
2023-04-14T10:16:39.724Z,3.17
2023-04-14T10:19:06.797Z,2.35
2023-04-14T10:21:40.574Z,3.08
2023-04-14T10:24:07.467Z,3.80
2023-04-14T10:26:42.610Z,4.55
2023-04-14T10:29:09.452Z,6.30
2023-04-14T10:31:49.615Z,6.20
2023-04-14T10:34:23.612Z,5.53
2023-04-14T10:36:50.388Z,9.80
2023-04-14T10:39:32.547Z,4.53
2023-04-14T10:42:12.640Z,6.40
2023-04-14T10:44:45.582Z,6.18
2023-04-14T10:47:25.210Z,4.82
2023-04-14T10:50:02.526Z,3.72
2023-04-14T10:52:35.625Z,6.90
2023-04-14T10:55:16.694Z,2.92
2023-04-14T10:57:44.788Z,3.72
2023-04-14T11:00:27.623Z,5.10
2023-04-14T11:03:05.675Z,7.00
2023-04-14T11:05:40.549Z,7.82
2023-04-14T11:08:26.716Z,4.95
2023-04-14T11:11:04.445Z,5.35
2023-04-14T11:13:39.667Z,4.88
2023-04-14T11:16:09.523Z,4.70
2023-04-14T11:18:51.587Z,4.63
2023-04-14T11:21:24.563Z,3.83
2023-04-14T11:23:57.669Z,4.50
2023-04-14T11:26:24.706Z,3.97
2023-04-14T11:28:59.834Z,4.35
2023-04-14T11:31:27.815Z,6.80
2023-04-14T11:34:01.604Z,5.30
2023-04-14T11:36:34.705Z,4.47
2023-04-14T11:39:02.613Z,4.95
2023-04-14T11:41:43.614Z,4.18
2023-04-14T11:44:19.728Z,6.38
2023-04-14T11:46:53.621Z,5.63
2023-04-14T11:49:22.206Z,6.28
2023-04-14T11:51:55.596Z,4.38
2023-04-14T11:54:23.428Z,4.32
2023-04-14T11:56:56.668Z,7.10
2023-04-14T11:59:23.525Z,4.72
2023-04-14T12:01:58.692Z,3.83
2023-04-14T12:04:32.092Z,5.25
2023-04-14T12:07:05.595Z,4.10
2023-04-14T12:09:32.765Z,6.18
2023-04-14T12:12:05.688Z,5.93
2023-04-14T12:14:32.600Z,6.53
2023-04-14T12:16:59.484Z,5.15
2023-04-14T12:19:32.872Z,3.78
2023-04-14T12:21:59.741Z,4.40
2023-04-14T12:24:40.612Z,8.50
2023-04-14T12:27:09.393Z,7.35
2023-04-14T12:29:43.623Z,6.20
2023-04-14T12:32:12.358Z,6.07
2023-04-14T12:34:45.657Z,4.78
2023-04-14T12:37:12.911Z,6.05
2023-04-14T12:40:12.654Z,5.47
2023-04-14T12:42:54.753Z,3.58
2023-04-14T12:45:28.669Z,5.15
2023-04-14T12:47:56.986Z,7.53
2023-04-14T12:50:34.746Z,4.63
2023-04-14T12:53:01.793Z,5.63
2023-04-14T12:55:37.641Z,5.95
2023-04-14T12:58:11.701Z,6.45
2023-04-14T13:00:40.490Z,4.95
2023-04-14T13:03:14.718Z,5.28
2023-04-14T13:05:48.686Z,6.30
2023-04-14T13:08:21.593Z,8.20
2023-04-14T13:10:54.657Z,6.55
2023-04-14T13:13:28.785Z,5.35
2023-04-14T13:16:13.386Z,6.03
2023-04-14T13:18:49.769Z,5.75
2023-04-14T13:21:17.003Z,5.45
2023-04-14T13:23:50.636Z,5.45
2023-04-14T13:26:17.406Z,4.30
2023-04-14T13:28:50.696Z,7.45
2023-04-14T13:31:18.602Z,4.53
2023-04-14T13:33:51.650Z,5.53
2023-04-14T13:36:24.684Z,4.05
2023-04-14T13:38:57.628Z,5.32
2023-04-14T13:41:31.768Z,6.25
2023-04-14T13:43:58.482Z,5.60
2023-04-14T13:46:40.309Z,6.53
2023-04-14T13:49:07.885Z,4.00
2023-04-14T13:51:41.696Z,4.07
2023-04-14T13:54:14.686Z,5.70
2023-04-14T13:56:47.641Z,5.97
2023-04-14T13:59:16.427Z,7.38
2023-04-14T14:01:49.872Z,5.00
2023-04-14T14:04:16.769Z,5.03
2023-04-14T14:06:49.680Z,7.28
2023-04-14T14:09:22.667Z,5.72
2023-04-14T14:11:49.496Z,5.65
2023-04-14T14:14:16.217Z,4.97
2023-04-14T14:16:49.704Z,3.75
2023-04-14T14:19:18.281Z,4.38
2023-04-14T14:21:51.708Z,6.07
2023-04-14T14:24:31.953Z,5.30
2023-04-14T14:26:58.653Z,4.32
2023-04-14T14:29:31.925Z,3.80
2023-04-14T14:31:58.575Z,4.00
2023-04-14T14:34:31.939Z,5.82
2023-04-14T14:36:58.702Z,2.45
2023-04-14T14:39:32.670Z,3.70
2023-04-14T14:42:06.012Z,5.60
2023-04-14T14:44:39.642Z,5.43
2023-04-14T14:47:06.982Z,3.63
2023-04-14T14:49:48.907Z,2.90
2023-04-14T14:52:34.017Z,4.82
2023-04-14T14:55:07.703Z,6.50
2023-04-14T14:57:41.788Z,5.32
2023-04-14T15:00:09.454Z,5.47
2023-04-14T15:02:42.856Z,4.65
2023-04-14T15:05:16.707Z,4.40
2023-04-14T15:07:50.672Z,4.78
2023-04-14T15:10:17.482Z,4.57
2023-04-14T15:12:50.711Z,5.07
2023-04-14T15:15:19.941Z,5.10
2023-04-14T15:17:53.720Z,5.40
2023-04-14T15:20:21.124Z,4.82
2023-04-14T15:22:54.720Z,4.15
2023-04-14T15:25:21.647Z,5.65
2023-04-14T15:27:54.756Z,4.20
2023-04-14T15:30:23.991Z,6.65
2023-04-14T15:32:57.804Z,3.75
2023-04-14T15:35:25.053Z,3.53
2023-04-14T15:37:58.745Z,3.33
2023-04-14T15:40:45.759Z,4.25
2023-04-14T15:43:18.744Z,6.00
2023-04-14T15:45:45.866Z,3.50
2023-04-14T15:48:20.100Z,3.80
2023-04-14T15:50:53.802Z,4.10
2023-04-14T15:53:20.645Z,6.47
2023-04-14T15:55:55.710Z,3.00
2023-04-14T15:58:29.797Z,5.05
2023-04-14T16:01:03.771Z,4.15
2023-04-14T16:03:36.999Z,5.82
2023-04-14T16:06:13.791Z,3.22
2023-04-14T16:08:40.672Z,3.13
2023-04-14T16:11:14.844Z,4.40
2023-04-14T16:13:41.679Z,4.15
2023-04-14T16:16:08.461Z,5.50
2023-04-14T16:18:43.803Z,5.43
2023-04-14T16:21:10.748Z,2.83
2023-04-14T16:23:43.744Z,4.43
2023-04-14T16:26:10.823Z,4.53
2023-04-14T16:28:43.776Z,5.07
2023-04-14T16:31:10.619Z,4.63
2023-04-14T16:33:44.861Z,4.50
2023-04-14T16:36:11.867Z,3.88
2023-04-14T16:38:45.883Z,3.22
2023-04-14T16:41:33.075Z,4.47
2023-04-14T16:44:06.876Z,3.60
2023-04-14T16:46:33.960Z,8.70
2023-04-14T16:49:06.797Z,4.63
2023-04-14T16:51:33.920Z,6.53
2023-04-14T16:54:06.776Z,2.55
2023-04-14T16:56:36.832Z,3.88
2023-04-14T16:59:10.795Z,4.40
2023-04-14T17:01:43.829Z,3.58
2023-04-14T17:04:18.029Z,4.75
2023-04-14T17:06:52.744Z,4.35
2023-04-14T17:09:19.452Z,6.03
2023-04-14T17:11:52.742Z,5.45
2023-04-14T17:14:19.426Z,3.13
2023-04-14T17:16:46.273Z,5.90
2023-04-14T17:19:19.725Z,3.55
2023-04-14T17:21:46.578Z,5.00
2023-04-14T17:24:19.751Z,5.30
2023-04-14T17:26:52.749Z,3.80
2023-04-14T17:29:19.404Z,5.57
2023-04-14T17:31:52.757Z,5.75
2023-04-14T17:34:20.763Z,5.50
2023-04-14T17:36:54.826Z,7.53
2023-04-14T17:39:26.940Z,5.72
2023-04-14T17:42:06.807Z,3.78
2023-04-14T17:44:41.930Z,3.25
2023-04-14T17:47:15.456Z,5.47
2023-04-14T17:49:49.810Z,8.02
2023-04-14T17:52:17.842Z,4.72
2023-04-14T17:54:52.753Z,5.45
2023-04-14T17:57:19.913Z,7.25
2023-04-14T17:59:52.766Z,4.82
2023-04-14T18:02:19.923Z,5.25
2023-04-14T18:04:53.756Z,4.80
2023-04-14T18:07:26.841Z,6.53
2023-04-14T18:09:56.428Z,7.20
2023-04-14T18:12:29.836Z,6.32
2023-04-14T18:14:56.692Z,3.75
2023-04-14T18:17:29.864Z,8.27
2023-04-14T18:19:58.282Z,7.68
2023-04-14T18:22:32.903Z,6.43
2023-04-14T18:24:59.587Z,8.82
2023-04-14T18:30:03.230Z,7.95
2023-04-14T18:32:37.934Z,7.05
2023-04-14T18:35:04.877Z,7.22
2023-04-14T18:37:31.947Z,7.07
2023-04-14T18:40:04.946Z,6.55
2023-04-14T18:42:44.794Z,8.00
2023-04-14T18:45:12.313Z,5.20
2023-04-14T18:47:45.838Z,9.10
2023-04-14T18:50:18.868Z,7.05
2023-04-14T18:52:45.622Z,6.53
2023-04-14T18:55:12.366Z,8.30
2023-04-14T18:57:45.848Z,7.05
2023-04-14T19:00:23.820Z,7.00
2023-04-14T19:02:50.552Z,7.63
2023-04-14T19:05:23.839Z,5.47
2023-04-14T19:07:50.674Z,6.50
2023-04-14T19:10:24.838Z,7.55
2023-04-14T19:12:57.861Z,7.00
2023-04-14T19:15:26.745Z,5.85
2023-04-14T19:17:59.887Z,6.80
2023-04-14T19:20:33.829Z,7.88
2023-04-14T19:23:00.708Z,6.30
2023-04-14T19:25:27.537Z,6.60
2023-04-14T19:28:00.850Z,6.05
2023-04-14T19:30:28.839Z,6.13
2023-04-14T19:33:01.850Z,5.60
2023-04-14T19:35:30.917Z,6.60
2023-04-14T19:37:58.125Z,6.93
2023-04-14T19:40:31.880Z,6.18
2023-04-14T19:43:05.270Z,5.68
2023-04-14T19:45:38.904Z,4.57
2023-04-14T19:48:19.933Z,6.35
2023-04-14T19:50:57.877Z,3.50
2023-04-14T19:53:31.951Z,5.63
2023-04-14T19:55:58.801Z,4.03
2023-04-14T19:58:34.059Z,5.03
2023-04-14T20:01:01.636Z,4.40
2023-04-14T20:03:35.168Z,6.78
2023-04-14T20:06:02.036Z,5.47
2023-04-14T20:08:35.940Z,5.40
2023-04-14T20:11:02.617Z,6.68
2023-04-14T20:13:38.851Z,5.40
2023-04-14T20:16:12.996Z,7.55
2023-04-14T20:18:40.695Z,8.13
2023-04-14T20:21:13.841Z,5.13
2023-04-14T20:23:46.988Z,7.63
2023-04-14T20:26:14.076Z,7.13
2023-04-14T20:28:48.927Z,6.80
2023-04-14T20:31:15.900Z,6.00
2023-04-14T20:33:49.953Z,5.25
2023-04-14T20:36:23.930Z,6.28
2023-04-14T20:38:50.841Z,6.78
2023-04-14T20:41:30.866Z,5.00
2023-04-14T20:44:04.834Z,5.95
2023-04-14T20:46:38.989Z,8.57
2023-04-14T20:49:05.657Z,5.40
2023-04-14T20:51:38.863Z,5.32
2023-04-14T20:54:11.912Z,4.65
2023-04-14T20:56:38.688Z,5.85
2023-04-14T20:59:11.955Z,5.47
2023-04-14T21:01:38.929Z,5.95
2023-04-14T21:04:12.070Z,4.57
2023-04-14T21:06:38.823Z,5.28
2023-04-14T21:09:05.880Z,6.90
2023-04-14T21:11:38.944Z,5.47
2023-04-14T21:15:30.764Z,6.70
2023-04-14T21:16:59.480Z,4.22
2023-04-14T21:19:34.102Z,4.22
2023-04-14T21:22:00.865Z,4.68
2023-04-14T21:24:33.940Z,4.28
2023-04-14T21:27:03.866Z,7.03
2023-04-14T21:29:36.944Z,7.45
2023-04-14T21:32:09.888Z,5.60
2023-04-14T21:34:36.677Z,4.78
2023-04-14T21:37:10.975Z,5.95
2023-04-14T21:39:43.886Z,4.95
2023-04-14T21:42:23.952Z,5.75
2023-04-14T21:44:50.895Z,6.45
2023-04-14T21:47:24.975Z,3.50
2023-04-14T21:49:51.744Z,4.38
2023-04-14T21:52:25.954Z,4.50
2023-04-14T21:54:52.632Z,4.45
2023-04-14T21:57:42.946Z,3.60
2023-04-14T22:00:16.320Z,5.13
2023-04-14T22:02:53.157Z,5.40
2023-04-14T22:05:27.088Z,3.55
2023-04-14T22:07:55.242Z,4.82
2023-04-14T22:10:28.933Z,4.07
2023-04-14T22:12:55.641Z,3.72
2023-04-14T22:15:28.996Z,3.15
2023-04-14T22:17:56.037Z,3.85
2023-04-14T22:20:31.100Z,4.45
2023-04-14T22:22:57.937Z,3.75
2023-04-14T22:25:30.910Z,3.55
2023-04-14T22:27:58.049Z,5.43
2023-04-14T22:30:30.977Z,4.22
2023-04-14T22:32:57.845Z,4.85
2023-04-14T22:35:31.154Z,4.68
2023-04-14T22:37:58.136Z,3.47
2023-04-14T22:40:32.042Z,6.45
2023-04-14T22:43:14.942Z,3.42
2023-04-14T22:45:42.281Z,4.60
2023-04-14T22:48:16.948Z,3.90
2023-04-14T22:50:43.828Z,3.55
2023-04-14T22:53:16.945Z,4.07
2023-04-14T22:55:44.362Z,5.03
2023-04-14T22:58:22.992Z,5.75
2023-04-14T23:00:49.736Z,4.93
2023-04-14T23:03:16.914Z,5.07
2023-04-14T23:05:50.963Z,4.38
2023-04-14T23:08:17.667Z,5.57
2023-04-14T23:10:50.955Z,3.63
2023-04-14T23:13:23.987Z,5.32
2023-04-14T23:15:57.013Z,3.50
2023-04-14T23:18:25.180Z,5.15
2023-04-14T23:20:58.952Z,4.78
2023-04-14T23:23:25.914Z,4.00
2023-04-14T23:26:05.898Z,4.40
2023-04-14T23:28:32.505Z,5.55
2023-04-14T23:31:06.038Z,6.18
2023-04-14T23:33:32.908Z,6.78
2023-04-14T23:36:06.034Z,4.90
2023-04-14T23:38:32.978Z,4.50
2023-04-14T23:41:07.455Z,4.17
2023-04-14T23:43:40.346Z,4.77
2023-04-14T23:46:14.050Z,7.33
2023-04-14T23:48:40.770Z,4.87
2023-04-14T23:51:19.685Z,5.03
2023-04-14T23:53:53.982Z,5.93
2023-04-14T23:56:27.986Z,6.03
2023-04-14T23:59:02.150Z,4.63
